createdAt,value
2023-02-19T00:02:15.571Z,10.30
2023-02-19T00:04:42.506Z,10.30
2023-02-19T00:07:09.370Z,10.40
2023-02-19T00:09:36.251Z,10.30
2023-02-19T00:12:03.152Z,10.30
2023-02-19T00:14:29.971Z,10.30
2023-02-19T00:16:56.850Z,10.20
2023-02-19T00:19:23.757Z,10.20
2023-02-19T00:21:53.782Z,10.20
2023-02-19T00:24:20.931Z,10.20
2023-02-19T00:26:48.227Z,10.10
2023-02-19T00:29:19.830Z,10.00
2023-02-19T00:31:46.879Z,10.00
2023-02-19T00:34:14.126Z,9.90
2023-02-19T00:36:41.456Z,9.90
2023-02-19T00:39:08.546Z,9.80
2023-02-19T00:41:35.364Z,9.80
2023-02-19T00:44:04.118Z,9.80
2023-02-19T00:46:44.692Z,9.80
2023-02-19T00:49:22.069Z,9.70
2023-02-19T00:51:49.639Z,9.70
2023-02-19T00:54:16.879Z,9.60
2023-02-19T00:56:43.748Z,9.60
2023-02-19T00:59:10.574Z,9.50
2023-02-19T01:01:37.500Z,9.40
2023-02-19T01:04:06.565Z,9.40
2023-02-19T01:06:34.713Z,9.30
2023-02-19T01:09:01.571Z,9.30
2023-02-19T01:11:28.505Z,9.20
2023-02-19T01:13:59.251Z,9.20
2023-02-19T01:16:27.523Z,9.20
2023-02-19T01:18:54.465Z,9.20
2023-02-19T01:21:23.190Z,9.20
2023-02-19T01:23:50.461Z,9.20
2023-02-19T01:26:22.267Z,9.10
2023-02-19T01:28:49.090Z,9.10
2023-02-19T01:31:21.410Z,9.10
2023-02-19T01:33:52.929Z,9.00
2023-02-19T01:36:19.807Z,8.90
2023-02-19T01:38:46.679Z,8.90
2023-02-19T01:41:16.115Z,8.80
2023-02-19T01:44:04.601Z,8.80
2023-02-19T01:46:35.245Z,8.80
2023-02-19T01:49:13.909Z,8.70
2023-02-19T01:51:58.516Z,8.70
2023-02-19T01:54:26.480Z,8.60
2023-02-19T01:56:53.258Z,8.60
2023-02-19T01:59:20.079Z,8.50
2023-02-19T02:01:46.951Z,8.50
2023-02-19T02:04:13.849Z,8.40
2023-02-19T02:06:55.499Z,8.40
2023-02-19T02:09:42.600Z,8.30
2023-02-19T02:12:09.606Z,8.30
2023-02-19T02:14:37.809Z,8.30
2023-02-19T02:17:13.704Z,8.30
2023-02-19T02:20:10.859Z,8.20
2023-02-19T02:22:44.634Z,8.20
2023-02-19T02:25:32.724Z,8.20
2023-02-19T02:28:41.289Z,8.20
2023-02-19T02:31:33.787Z,8.10
2023-02-19T02:34:03.746Z,8.00
2023-02-19T02:36:37.641Z,8.00
2023-02-19T02:39:07.289Z,7.90
2023-02-19T02:41:34.215Z,7.90
2023-02-19T02:44:00.971Z,7.90
2023-02-19T02:46:34.205Z,7.90
2023-02-19T02:49:09.458Z,7.90
2023-02-19T02:51:36.815Z,7.90
2023-02-19T02:54:42.822Z,7.80
2023-02-19T02:57:09.693Z,7.80
2023-02-19T02:59:37.726Z,7.80
2023-02-19T03:02:12.401Z,7.70
2023-02-19T03:05:12.857Z,7.70
2023-02-19T03:07:41.708Z,7.70
2023-02-19T03:10:10.399Z,7.70
2023-02-19T03:12:55.965Z,7.70
2023-02-19T03:15:41.293Z,7.70
2023-02-19T03:18:27.160Z,7.70
2023-02-19T03:20:56.305Z,7.70
2023-02-19T03:23:43.346Z,7.60
2023-02-19T03:26:11.261Z,7.50
2023-02-19T03:28:57.407Z,7.40
2023-02-19T03:31:24.708Z,7.40
2023-02-19T03:33:56.439Z,7.40
2023-02-19T03:36:25.884Z,7.40
2023-02-19T03:39:06.033Z,7.40
2023-02-19T03:41:40.561Z,7.40
2023-02-19T03:44:11.371Z,7.40
2023-02-19T03:46:40.959Z,7.30
2023-02-19T03:49:30.409Z,7.30
2023-02-19T03:52:15.349Z,7.30
2023-02-19T03:54:53.140Z,7.30
2023-02-19T03:57:50.203Z,7.30
2023-02-19T04:00:41.752Z,7.30
2023-02-19T04:03:11.341Z,7.30
2023-02-19T04:05:41.422Z,7.30
2023-02-19T04:08:16.487Z,7.20
2023-02-19T04:10:44.245Z,7.20
2023-02-19T04:13:16.062Z,7.20
2023-02-19T04:15:43.196Z,7.10
2023-02-19T04:18:31.332Z,7.10
2023-02-19T04:20:58.133Z,7.00
2023-02-19T04:23:25.886Z,7.00
2023-02-19T04:25:55.129Z,7.00
2023-02-19T04:28:21.926Z,6.90
2023-02-19T04:30:48.826Z,6.90
2023-02-19T04:33:15.624Z,6.90
2023-02-19T04:35:42.458Z,6.90
2023-02-19T04:38:09.271Z,6.90
2023-02-19T04:40:36.075Z,7.00
2023-02-19T04:43:02.899Z,6.90
2023-02-19T04:45:29.714Z,6.90
2023-02-19T04:47:58.565Z,6.90
2023-02-19T04:50:25.692Z,6.80
2023-02-19T04:52:52.525Z,6.80
2023-02-19T04:55:19.352Z,6.80
2023-02-19T04:57:46.155Z,6.70
2023-02-19T05:00:13.295Z,6.70
2023-02-19T05:02:40.121Z,6.70
2023-02-19T05:05:07.078Z,6.70
2023-02-19T05:07:34.157Z,6.70
2023-02-19T05:10:01.000Z,6.60
2023-02-19T05:12:27.779Z,6.50
2023-02-19T05:14:54.656Z,6.40
2023-02-19T05:17:21.490Z,6.40
2023-02-19T05:19:48.316Z,6.40
2023-02-19T05:22:15.173Z,6.40
2023-02-19T05:24:42.071Z,6.40
2023-02-19T05:27:08.882Z,6.40
2023-02-19T05:29:35.680Z,6.40
2023-02-19T05:32:02.592Z,6.30
2023-02-19T05:34:29.565Z,6.30
2023-02-19T05:36:56.391Z,6.30
2023-02-19T05:39:23.203Z,6.30
2023-02-19T05:41:50.039Z,6.40
2023-02-19T05:44:16.840Z,6.40
2023-02-19T05:46:43.753Z,6.40
2023-02-19T05:49:10.597Z,6.50
2023-02-19T05:51:37.558Z,6.40
2023-02-19T05:54:04.485Z,6.40
2023-02-19T05:56:41.133Z,6.50
2023-02-19T05:59:17.891Z,6.60
2023-02-19T06:01:44.751Z,6.60
2023-02-19T06:04:11.764Z,6.70
2023-02-19T06:06:38.818Z,6.80
2023-02-19T06:09:06.122Z,6.80
2023-02-19T06:11:33.165Z,6.90
2023-02-19T06:14:00.117Z,6.90
2023-02-19T06:16:27.164Z,7.00
2023-02-19T06:18:53.973Z,7.10
2023-02-19T06:21:20.819Z,7.10
2023-02-19T06:23:47.680Z,7.10
2023-02-19T06:26:19.764Z,7.20
2023-02-19T06:28:47.670Z,7.30
2023-02-19T06:31:14.917Z,7.40
2023-02-19T06:33:41.947Z,7.40
2023-02-19T06:36:12.146Z,7.70
2023-02-19T06:38:39.030Z,8.00
2023-02-19T06:41:06.194Z,8.20
2023-02-19T06:43:33.620Z,8.30
2023-02-19T06:46:01.283Z,8.50
2023-02-19T06:48:28.688Z,9.00
2023-02-19T06:50:55.584Z,10.00
2023-02-19T06:53:22.513Z,10.60
2023-02-19T06:56:07.964Z,11.80
2023-02-19T06:58:34.935Z,13.10
2023-02-19T07:01:01.866Z,14.20
2023-02-19T07:03:28.736Z,15.10
2023-02-19T07:05:55.543Z,16.10
2023-02-19T07:08:22.401Z,16.80
2023-02-19T07:10:56.598Z,17.80
2023-02-19T07:13:24.486Z,18.50
2023-02-19T07:15:52.287Z,19.10
2023-02-19T07:18:19.307Z,19.70
2023-02-19T07:20:46.279Z,20.30
2023-02-19T07:23:13.112Z,20.80
2023-02-19T07:25:40.086Z,20.60
2023-02-19T07:28:07.160Z,20.50
2023-02-19T07:30:34.099Z,20.20
2023-02-19T07:33:01.056Z,20.00
2023-02-19T07:35:27.884Z,19.90
2023-02-19T07:37:54.807Z,20.10
2023-02-19T07:40:21.623Z,20.20
2023-02-19T07:42:48.406Z,20.30
2023-02-19T07:45:15.662Z,19.80
2023-02-19T07:47:42.638Z,19.10
2023-02-19T07:50:09.474Z,18.30
2023-02-19T07:52:36.252Z,17.70
2023-02-19T07:55:03.125Z,17.50
2023-02-19T07:57:31.241Z,17.00
2023-02-19T07:59:59.020Z,16.40
2023-02-19T08:02:44.342Z,16.20
2023-02-19T08:05:11.144Z,16.40
2023-02-19T08:07:38.317Z,16.90
2023-02-19T08:10:24.119Z,16.80
2023-02-19T08:13:18.823Z,16.80
2023-02-19T08:15:46.276Z,16.90
2023-02-19T08:18:14.133Z,16.50
2023-02-19T08:20:41.091Z,16.00
2023-02-19T08:23:08.317Z,15.50
2023-02-19T08:25:35.364Z,15.40
2023-02-19T08:28:02.151Z,15.50
2023-02-19T08:30:29.900Z,15.70
2023-02-19T08:32:57.599Z,16.00
2023-02-19T08:35:24.582Z,16.60
2023-02-19T08:37:51.453Z,17.20
2023-02-19T08:40:18.432Z,17.90
2023-02-19T08:42:45.247Z,18.40
2023-02-19T08:45:12.114Z,18.70
2023-02-19T08:47:39.857Z,19.00
2023-02-19T08:50:07.441Z,19.60
2023-02-19T08:52:34.372Z,19.30
2023-02-19T08:55:02.124Z,19.30
2023-02-19T08:57:29.303Z,19.20
2023-02-19T08:59:57.242Z,19.20
2023-02-19T09:02:24.731Z,19.00
2023-02-19T09:04:51.521Z,19.00
2023-02-19T09:07:18.717Z,19.20
2023-02-19T09:09:45.596Z,19.40
2023-02-19T09:12:12.547Z,19.50
2023-02-19T09:14:39.373Z,19.60
2023-02-19T09:17:06.966Z,19.70
2023-02-19T09:19:33.866Z,20.00
2023-02-19T09:22:00.820Z,20.30
2023-02-19T09:24:27.646Z,20.60
2023-02-19T09:26:54.775Z,21.10
2023-02-19T09:29:22.733Z,21.50
2023-02-19T09:31:49.566Z,22.10
2023-02-19T09:34:16.518Z,22.60
2023-02-19T09:36:43.330Z,22.40
2023-02-19T09:39:12.555Z,21.90
2023-02-19T09:41:59.213Z,21.60
2023-02-19T09:44:36.571Z,22.00
2023-02-19T09:47:06.144Z,23.00
2023-02-19T09:49:34.673Z,24.20
2023-02-19T09:52:12.947Z,25.30
2023-02-19T09:54:39.782Z,25.90
2023-02-19T09:57:06.546Z,26.00
2023-02-19T09:59:48.995Z,25.50
2023-02-19T10:02:17.367Z,24.80
2023-02-19T10:04:45.063Z,24.20
2023-02-19T10:07:15.909Z,23.80
2023-02-19T10:10:04.610Z,23.40
2023-02-19T10:12:32.291Z,23.00
2023-02-19T10:15:09.601Z,22.30
2023-02-19T10:17:37.424Z,21.90
2023-02-19T10:20:04.717Z,21.60
2023-02-19T10:22:35.726Z,21.30
2023-02-19T10:25:02.602Z,21.30
2023-02-19T10:27:32.198Z,21.40
2023-02-19T10:29:59.347Z,21.50
2023-02-19T10:32:26.686Z,21.80
2023-02-19T10:35:13.378Z,22.40
2023-02-19T10:37:47.552Z,22.90
2023-02-19T10:40:36.359Z,23.60
2023-02-19T10:43:04.133Z,24.30
2023-02-19T10:45:34.686Z,24.60
2023-02-19T10:48:01.601Z,25.00
2023-02-19T10:50:31.529Z,25.40
2023-02-19T10:52:59.464Z,25.80
2023-02-19T10:55:37.718Z,25.80
2023-02-19T10:58:26.363Z,25.70
2023-02-19T11:01:12.932Z,25.30
2023-02-19T11:03:39.839Z,25.10
2023-02-19T11:06:10.834Z,25.30
2023-02-19T11:08:51.160Z,25.60
2023-02-19T11:11:30.202Z,25.70
2023-02-19T11:13:57.679Z,25.60
2023-02-19T11:16:25.139Z,25.50
2023-02-19T11:18:57.288Z,25.30
2023-02-19T11:21:32.948Z,25.00
2023-02-19T11:24:06.017Z,24.70
2023-02-19T11:26:35.152Z,24.50
2023-02-19T11:29:11.940Z,24.30
2023-02-19T11:31:38.903Z,24.10
2023-02-19T11:34:14.943Z,23.90
2023-02-19T11:36:42.282Z,23.80
2023-02-19T11:39:18.066Z,23.70
2023-02-19T11:42:03.204Z,23.60
2023-02-19T11:44:48.691Z,23.40
2023-02-19T11:47:36.425Z,23.10
2023-02-19T11:50:24.132Z,22.90
2023-02-19T11:53:11.125Z,22.60
2023-02-19T11:56:01.917Z,22.40
2023-02-19T11:58:37.638Z,22.10
2023-02-19T12:01:36.566Z,21.90
2023-02-19T12:04:12.291Z,21.80
2023-02-19T12:06:57.076Z,21.80
2023-02-19T12:09:54.282Z,21.80
2023-02-19T12:12:30.185Z,21.60
2023-02-19T12:15:07.870Z,21.40
2023-02-19T12:17:34.678Z,21.30
2023-02-19T12:20:25.576Z,21.20
2023-02-19T12:23:01.288Z,21.10
2023-02-19T12:26:08.201Z,21.00
2023-02-19T12:28:35.063Z,20.90
2023-02-19T12:31:22.790Z,20.90
2023-02-19T12:33:57.149Z,20.80
2023-02-19T12:36:27.051Z,20.70
2023-02-19T12:39:02.952Z,20.60
2023-02-19T12:41:41.842Z,20.40
2023-02-19T12:44:19.306Z,20.20
2023-02-19T12:46:55.650Z,20.10
2023-02-19T12:49:25.431Z,19.90
2023-02-19T12:52:03.324Z,19.80
2023-02-19T12:54:44.479Z,19.70
2023-02-19T12:57:20.120Z,19.80
2023-02-19T12:59:48.794Z,19.90
2023-02-19T13:02:37.901Z,19.90
2023-02-19T13:05:52.878Z,19.80
2023-02-19T13:08:29.355Z,19.80
2023-02-19T13:10:59.375Z,19.70
2023-02-19T13:13:28.684Z,19.70
2023-02-19T13:16:09.821Z,19.50
2023-02-19T13:18:41.266Z,19.50
2023-02-19T13:21:08.107Z,19.40
2023-02-19T13:23:58.285Z,19.30
2023-02-19T13:26:30.867Z,19.10
2023-02-19T13:29:03.906Z,19.00
2023-02-19T13:31:48.958Z,19.00
2023-02-19T13:34:18.912Z,18.90
2023-02-19T13:36:45.705Z,18.80
2023-02-19T13:41:49.212Z,18.60
2023-02-19T13:44:20.364Z,18.50
2023-02-19T13:46:47.850Z,18.50
2023-02-19T13:49:31.703Z,18.30
2023-02-19T13:51:59.530Z,18.30
2023-02-19T13:54:30.992Z,18.20
2023-02-19T13:57:22.746Z,18.20
2023-02-19T13:59:53.615Z,18.30
2023-02-19T14:02:23.558Z,18.30
2023-02-19T14:05:00.305Z,18.30
2023-02-19T14:07:27.091Z,18.30
2023-02-19T14:09:54.457Z,18.30
2023-02-19T14:12:22.448Z,18.30
2023-02-19T14:14:52.615Z,18.30
2023-02-19T14:17:28.206Z,18.10
2023-02-19T14:20:16.785Z,17.90
2023-02-19T14:22:52.831Z,17.90
2023-02-19T14:25:29.421Z,17.90
2023-02-19T14:28:17.160Z,17.90
2023-02-19T14:31:11.955Z,17.90
2023-02-19T14:33:40.333Z,17.80
2023-02-19T14:36:33.437Z,17.70
2023-02-19T14:39:01.144Z,17.60
2023-02-19T14:41:28.765Z,17.40
2023-02-19T14:43:56.476Z,17.30
2023-02-19T14:46:40.290Z,17.10
2023-02-19T14:49:15.629Z,17.00
2023-02-19T14:51:44.269Z,16.90
2023-02-19T14:54:22.070Z,16.70
2023-02-19T14:56:50.215Z,16.60
2023-02-19T14:59:20.186Z,16.40
2023-02-19T15:01:49.631Z,16.30
2023-02-19T15:04:24.393Z,16.30
2023-02-19T15:06:53.116Z,16.20
2023-02-19T15:09:20.127Z,16.20
2023-02-19T15:11:46.928Z,16.10
2023-02-19T15:14:19.556Z,16.10
2023-02-19T15:16:46.407Z,16.00
2023-02-19T15:19:13.190Z,15.90
2023-02-19T15:21:43.441Z,15.80
2023-02-19T15:24:11.216Z,15.70
2023-02-19T15:26:42.530Z,15.70
2023-02-19T15:29:19.654Z,15.60
2023-02-19T15:31:54.242Z,15.60
2023-02-19T15:34:25.882Z,15.50
2023-02-19T15:37:04.145Z,15.40
2023-02-19T15:39:39.366Z,15.30
2023-02-19T15:42:06.902Z,15.30
2023-02-19T15:44:36.844Z,15.30
2023-02-19T15:47:23.816Z,15.10
2023-02-19T15:50:09.470Z,15.00
2023-02-19T15:52:49.720Z,15.00
2023-02-19T15:55:19.276Z,14.90
2023-02-19T15:57:50.002Z,15.00
2023-02-19T16:00:23.121Z,14.90
2023-02-19T16:02:50.091Z,14.90
2023-02-19T16:05:24.907Z,14.80
2023-02-19T16:08:18.069Z,14.70
2023-02-19T16:10:58.585Z,14.60
2023-02-19T16:13:30.637Z,14.60
2023-02-19T16:15:58.751Z,14.50
2023-02-19T16:18:25.534Z,14.40
2023-02-19T16:20:52.401Z,14.40
2023-02-19T16:23:22.026Z,14.30
2023-02-19T16:25:48.829Z,14.20
2023-02-19T16:28:22.091Z,14.20
2023-02-19T16:31:02.306Z,14.10
2023-02-19T16:33:42.885Z,14.00
2023-02-19T16:36:37.193Z,13.90
2023-02-19T16:39:07.121Z,13.90
2023-02-19T16:41:40.104Z,13.80
2023-02-19T16:44:25.045Z,13.70
2023-02-19T16:46:55.861Z,13.70
2023-02-19T16:49:23.097Z,13.60
2023-02-19T16:51:49.948Z,13.60
2023-02-19T16:54:16.795Z,13.50
2023-02-19T16:56:43.633Z,13.40
2023-02-19T16:59:10.543Z,13.40
2023-02-19T17:01:37.350Z,13.30
2023-02-19T17:04:08.527Z,13.30
2023-02-19T17:06:37.747Z,13.20
2023-02-19T17:09:05.469Z,13.20
2023-02-19T17:11:32.331Z,13.10
2023-02-19T17:13:59.201Z,13.10
2023-02-19T17:16:28.012Z,13.10
2023-02-19T17:18:55.238Z,13.00
2023-02-19T17:21:24.279Z,12.90
2023-02-19T17:23:51.476Z,12.90
2023-02-19T17:26:26.016Z,12.90
2023-02-19T17:28:52.809Z,12.80
2023-02-19T17:31:19.798Z,12.80
2023-02-19T17:33:47.087Z,12.70
2023-02-19T17:36:18.462Z,12.70
2023-02-19T17:38:45.474Z,12.60
2023-02-19T17:41:12.502Z,12.70
2023-02-19T17:43:39.465Z,12.60
2023-02-19T17:46:06.306Z,12.60
2023-02-19T17:48:33.197Z,12.60
2023-02-19T17:50:59.988Z,12.60
2023-02-19T17:53:26.783Z,12.60
2023-02-19T17:55:53.566Z,12.60
2023-02-19T17:58:20.334Z,12.60
2023-02-19T18:00:47.433Z,12.60
2023-02-19T18:03:14.396Z,12.60
2023-02-19T18:05:41.218Z,12.60
2023-02-19T18:08:08.003Z,12.60
2023-02-19T18:10:36.017Z,12.60
2023-02-19T18:13:03.001Z,12.60
2023-02-19T18:15:29.935Z,12.50
2023-02-19T18:17:57.137Z,12.50
2023-02-19T18:20:26.432Z,12.50
2023-02-19T18:22:53.723Z,12.50
2023-02-19T18:25:20.912Z,12.50
2023-02-19T18:27:47.824Z,12.40
2023-02-19T18:30:19.024Z,12.40
2023-02-19T18:32:48.139Z,12.40
2023-02-19T18:35:15.756Z,12.40
2023-02-19T18:37:42.551Z,12.40
2023-02-19T18:40:09.887Z,12.40
2023-02-19T18:42:36.790Z,12.40
2023-02-19T18:45:03.929Z,12.40
2023-02-19T18:47:30.718Z,12.40
2023-02-19T18:49:58.053Z,12.40
2023-02-19T18:52:25.254Z,12.30
2023-02-19T18:54:52.788Z,12.30
2023-02-19T18:57:20.528Z,12.30
2023-02-19T18:59:47.515Z,12.30
2023-02-19T19:02:15.056Z,12.30
2023-02-19T19:04:43.191Z,12.30
2023-02-19T19:07:10.267Z,12.20
2023-02-19T19:09:37.406Z,12.20
2023-02-19T19:12:04.708Z,12.20
2023-02-19T19:14:31.586Z,12.20
2023-02-19T19:16:58.477Z,12.20
2023-02-19T19:19:25.237Z,12.20
2023-02-19T19:21:53.457Z,12.10
2023-02-19T19:24:20.992Z,12.10
2023-02-19T19:26:48.264Z,12.00
2023-02-19T19:29:16.158Z,12.00
2023-02-19T19:31:43.199Z,11.80
2023-02-19T19:34:11.031Z,11.70
2023-02-19T19:36:37.821Z,11.70
2023-02-19T19:39:04.736Z,11.60
2023-02-19T19:41:31.713Z,11.50
2023-02-19T19:43:58.538Z,11.40
2023-02-19T19:46:25.393Z,11.30
2023-02-19T19:48:53.048Z,11.20
2023-02-19T19:51:19.895Z,11.10
2023-02-19T19:53:47.748Z,11.10
2023-02-19T19:56:14.878Z,11.10
2023-02-19T19:58:41.676Z,11.00
2023-02-19T20:01:08.453Z,11.00
2023-02-19T20:03:37.365Z,10.90
2023-02-19T20:06:04.397Z,10.90
2023-02-19T20:08:31.316Z,10.90
2023-02-19T20:10:58.151Z,10.90
2023-02-19T20:13:26.485Z,10.80
2023-02-19T20:15:53.454Z,10.80
2023-02-19T20:18:21.553Z,10.70
2023-02-19T20:20:48.450Z,10.60
2023-02-19T20:23:15.310Z,10.50
2023-02-19T20:25:42.121Z,10.30
2023-02-19T20:28:08.986Z,10.20
2023-02-19T20:30:37.303Z,10.20
2023-02-19T20:33:04.657Z,10.20
2023-02-19T20:35:31.890Z,10.10
2023-02-19T20:37:58.804Z,10.00
2023-02-19T20:40:27.780Z,10.00
2023-02-19T20:42:54.643Z,9.90
2023-02-19T20:45:22.011Z,9.90
2023-02-19T20:47:48.779Z,9.90
2023-02-19T20:50:19.165Z,9.90
2023-02-19T20:52:46.530Z,9.90
2023-02-19T20:55:13.383Z,9.90
2023-02-19T20:57:40.251Z,9.80
2023-02-19T21:00:08.452Z,9.80
2023-02-19T21:02:35.397Z,9.70
2023-02-19T21:05:02.283Z,9.70
2023-02-19T21:07:31.987Z,9.60
2023-02-19T21:09:58.794Z,9.50
2023-02-19T21:12:25.664Z,9.40
2023-02-19T21:14:52.515Z,9.40
2023-02-19T21:17:19.320Z,9.30
2023-02-19T21:19:49.854Z,9.30
2023-02-19T21:22:17.105Z,9.30
2023-02-19T21:24:44.690Z,9.30
2023-02-19T21:27:11.530Z,9.30
2023-02-19T21:29:38.386Z,9.20
2023-02-19T21:32:05.589Z,9.20
2023-02-19T21:34:32.401Z,9.10
2023-02-19T21:36:59.894Z,9.10
2023-02-19T21:39:27.571Z,9.00
2023-02-19T21:41:54.381Z,9.00
2023-02-19T21:44:21.743Z,9.10
2023-02-19T21:46:48.694Z,9.00
2023-02-19T21:49:15.602Z,9.00
2023-02-19T21:51:43.603Z,9.00
2023-02-19T21:54:15.129Z,9.00
2023-02-19T21:56:42.061Z,8.90
2023-02-19T21:59:11.994Z,8.80
2023-02-19T22:01:38.979Z,8.80
2023-02-19T22:04:10.220Z,8.80
2023-02-19T22:06:39.247Z,8.80
2023-02-19T22:09:06.787Z,8.80
2023-02-19T22:11:33.708Z,8.80
2023-02-19T22:14:00.531Z,8.80
2023-02-19T22:16:28.787Z,8.80
2023-02-19T22:18:56.995Z,8.80
2023-02-19T22:21:26.535Z,8.80
2023-02-19T22:23:53.693Z,8.80
2023-02-19T22:26:25.333Z,8.70
2023-02-19T22:28:55.314Z,8.70
2023-02-19T22:31:23.113Z,8.70
2023-02-19T22:33:52.568Z,8.60
2023-02-19T22:36:20.360Z,8.60
2023-02-19T22:38:47.356Z,8.50
2023-02-19T22:41:14.701Z,8.50
2023-02-19T22:43:41.518Z,8.40
2023-02-19T22:46:15.480Z,8.40
2023-02-19T22:48:42.577Z,8.30
2023-02-19T22:51:13.018Z,8.20
2023-02-19T22:53:44.813Z,8.20
2023-02-19T22:56:12.387Z,8.10
2023-02-19T22:58:39.761Z,8.10
2023-02-19T23:01:06.737Z,8.10
2023-02-19T23:03:33.619Z,8.10
2023-02-19T23:06:03.958Z,8.10
2023-02-19T23:08:30.783Z,8.10
2023-02-19T23:10:57.632Z,8.20
2023-02-19T23:13:24.430Z,8.20
2023-02-19T23:15:51.223Z,8.20
2023-02-19T23:18:18.014Z,8.10
2023-02-19T23:20:44.792Z,8.10
2023-02-19T23:23:11.602Z,8.10
2023-02-19T23:25:38.368Z,8.00
2023-02-19T23:28:05.193Z,8.00
2023-02-19T23:30:32.128Z,8.00
2023-02-19T23:32:58.958Z,8.00
2023-02-19T23:35:25.790Z,8.00
2023-02-19T23:37:52.659Z,8.00
2023-02-19T23:40:19.525Z,7.90
2023-02-19T23:42:46.312Z,7.90
2023-02-19T23:45:15.970Z,7.80
2023-02-19T23:47:42.749Z,7.80
2023-02-19T23:50:09.884Z,7.80
2023-02-19T23:52:36.666Z,7.80
2023-02-19T23:55:03.434Z,7.80
2023-02-19T23:57:30.295Z,7.70
2023-02-19T23:59:57.114Z,7.70
